createdAt,value
2018-10-12T00:01:20.668Z,8.53
2018-10-12T00:03:49.482Z,17.33
2018-10-12T00:06:18.310Z,9.83
2018-10-12T00:08:47.143Z,8.30
2018-10-12T00:11:15.965Z,9.27
2018-10-12T00:13:44.987Z,9.07
2018-10-12T00:16:13.827Z,9.77
2018-10-12T00:18:42.687Z,8.50
2018-10-12T00:21:11.491Z,9.93
2018-10-12T00:23:40.327Z,11.87
2018-10-12T00:26:09.181Z,8.30
2018-10-12T00:28:38.046Z,8.90
2018-10-12T00:31:06.979Z,10.90
2018-10-12T00:33:35.816Z,8.90
2018-10-12T00:36:04.687Z,10.30
2018-10-12T00:38:33.551Z,10.17
2018-10-12T00:41:02.403Z,8.30
2018-10-12T00:43:31.232Z,10.40
2018-10-12T00:46:00.099Z,10.97
2018-10-12T00:48:28.946Z,10.20
2018-10-12T00:50:57.805Z,11.03
2018-10-12T00:53:26.727Z,9.87
2018-10-12T00:55:55.563Z,9.93
2018-10-12T00:58:24.379Z,9.87
2018-10-12T01:00:53.230Z,7.77
2018-10-12T01:03:22.055Z,8.70
2018-10-12T01:05:51.395Z,10.30
2018-10-12T01:08:20.739Z,7.63
2018-10-12T01:10:49.983Z,8.23
2018-10-12T01:13:19.295Z,9.20
2018-10-12T01:15:48.583Z,9.03
2018-10-12T01:18:17.836Z,8.17
2018-10-12T01:20:47.052Z,8.10
2018-10-12T01:23:16.351Z,7.07
2018-10-12T01:25:45.626Z,8.67
2018-10-12T01:28:14.838Z,10.27
2018-10-12T01:30:44.023Z,9.90
2018-10-12T01:33:13.217Z,10.10
2018-10-12T01:35:42.399Z,8.60
2018-10-12T01:38:11.388Z,8.13
2018-10-12T01:40:40.608Z,8.17
2018-10-12T01:43:09.786Z,9.17
2018-10-12T01:45:38.997Z,10.97
2018-10-12T01:48:08.229Z,11.53
2018-10-12T01:50:37.690Z,9.17
2018-10-12T01:53:06.964Z,8.13
2018-10-12T01:55:36.185Z,8.27
2018-10-12T01:58:05.376Z,9.77
2018-10-12T02:00:34.489Z,10.17
2018-10-12T02:03:03.693Z,11.03
2018-10-12T02:05:32.874Z,10.47
2018-10-12T02:08:02.080Z,9.40
2018-10-12T02:10:31.209Z,9.30
2018-10-12T02:13:00.282Z,8.37
2018-10-12T02:15:35.542Z,9.57
2018-10-12T02:18:04.829Z,9.83
2018-10-12T02:20:34.005Z,10.07
2018-10-12T02:23:03.090Z,12.90
2018-10-12T02:25:32.198Z,11.70
2018-10-12T02:28:01.439Z,13.00
2018-10-12T02:30:30.221Z,14.23
2018-10-12T02:32:59.001Z,14.87
2018-10-12T02:35:27.790Z,9.77
2018-10-12T02:37:56.561Z,11.63
2018-10-12T02:40:25.388Z,12.13
2018-10-12T02:42:54.165Z,15.03
2018-10-12T02:45:22.985Z,10.73
2018-10-12T02:47:51.764Z,11.67
2018-10-12T02:50:20.550Z,11.47
2018-10-12T02:52:49.333Z,11.00
2018-10-12T02:55:18.095Z,12.77
2018-10-12T02:57:46.936Z,18.03
2018-10-12T03:00:15.726Z,12.27
2018-10-12T03:02:44.533Z,12.20
2018-10-12T03:05:13.350Z,13.13
2018-10-12T03:07:42.370Z,12.43
2018-10-12T03:10:11.514Z,11.60
2018-10-12T03:12:40.709Z,13.40
2018-10-12T03:15:09.908Z,11.10
2018-10-12T03:17:39.004Z,11.77
2018-10-12T03:20:08.200Z,13.80
2018-10-12T03:22:37.281Z,9.67
2018-10-12T03:25:06.629Z,10.67
2018-10-12T03:27:46.549Z,8.53
2018-10-12T03:30:15.657Z,11.30
2018-10-12T03:32:44.765Z,12.10
2018-10-12T03:35:13.941Z,10.67
2018-10-12T03:37:43.123Z,11.20
2018-10-12T03:40:12.368Z,9.83
2018-10-12T03:42:41.602Z,10.20
2018-10-12T03:45:10.861Z,10.60
2018-10-12T03:47:40.133Z,11.43
2018-10-12T03:50:09.316Z,14.60
2018-10-12T03:52:38.145Z,10.67
2018-10-12T03:55:07.130Z,9.73
2018-10-12T03:57:35.957Z,11.43
2018-10-12T04:00:05.765Z,12.77
2018-10-12T04:02:34.565Z,8.73
2018-10-12T04:05:03.445Z,11.77
2018-10-12T04:07:32.223Z,10.40
2018-10-12T04:10:01.009Z,11.83
2018-10-12T04:12:29.849Z,9.43
2018-10-12T04:14:58.618Z,9.63
2018-10-12T04:17:27.430Z,9.67
2018-10-12T04:19:56.201Z,10.63
2018-10-12T04:22:26.185Z,8.93
2018-10-12T04:24:54.984Z,11.60
2018-10-12T04:27:23.774Z,9.80
2018-10-12T04:29:52.532Z,11.80
2018-10-12T04:32:21.379Z,10.73
2018-10-12T04:34:50.184Z,13.43
2018-10-12T04:37:19.022Z,9.17
2018-10-12T04:40:15.924Z,11.60
2018-10-12T04:42:44.829Z,12.37
2018-10-12T04:45:14.160Z,14.13
2018-10-12T04:47:43.006Z,11.07
2018-10-12T04:50:11.817Z,14.40
2018-10-12T04:52:40.778Z,14.00
2018-10-12T04:55:09.621Z,11.33
2018-10-12T04:57:38.442Z,12.20
2018-10-12T05:00:07.296Z,10.17
2018-10-12T05:02:36.125Z,11.63
2018-10-12T05:05:04.961Z,11.77
2018-10-12T05:07:33.799Z,12.77
2018-10-12T05:10:02.614Z,12.97
2018-10-12T05:12:31.417Z,14.00
2018-10-12T05:15:00.229Z,17.87
2018-10-12T05:17:29.001Z,11.70
2018-10-12T05:19:57.790Z,17.07
2018-10-12T05:22:26.559Z,19.20
2018-10-12T05:24:55.330Z,12.53
2018-10-12T05:27:24.116Z,12.40
2018-10-12T05:29:52.873Z,10.53
2018-10-12T05:32:21.648Z,15.63
2018-10-12T05:34:50.925Z,16.60
2018-10-12T05:37:20.089Z,19.30
2018-10-12T05:39:49.221Z,16.60
2018-10-12T05:42:18.642Z,14.00
2018-10-12T05:44:47.825Z,15.83
2018-10-12T05:47:17.025Z,15.03
2018-10-12T05:49:57.689Z,15.47
2018-10-12T05:52:26.904Z,16.07
2018-10-12T05:54:56.125Z,14.30
2018-10-12T05:57:25.339Z,16.00
2018-10-12T05:59:54.523Z,21.43
2018-10-12T06:02:23.901Z,22.80
2018-10-12T06:04:53.127Z,24.10
2018-10-12T06:07:22.386Z,26.17
2018-10-12T06:09:51.622Z,21.67
2018-10-12T06:12:20.934Z,21.00
2018-10-12T06:14:50.049Z,19.20
2018-10-12T06:17:19.017Z,16.87
2018-10-12T06:19:47.799Z,16.20
2018-10-12T06:22:16.596Z,20.57
2018-10-12T06:24:45.393Z,16.30
2018-10-12T06:27:14.233Z,15.40
2018-10-12T06:29:43.009Z,15.83
2018-10-12T06:32:11.816Z,14.70
2018-10-12T06:34:40.621Z,12.90
2018-10-12T06:37:09.412Z,14.17
2018-10-12T06:39:38.205Z,15.53
2018-10-12T06:42:07.000Z,11.40
2018-10-12T06:44:35.797Z,16.90
2018-10-12T06:47:04.602Z,14.67
2018-10-12T06:49:33.372Z,13.97
2018-10-12T06:52:02.161Z,12.10
2018-10-12T06:54:30.950Z,14.33
2018-10-12T06:56:59.725Z,14.03
2018-10-12T06:59:28.520Z,12.80
2018-10-12T07:01:57.361Z,14.50
2018-10-12T07:04:26.226Z,11.73
2018-10-12T07:06:55.012Z,12.80
2018-10-12T07:09:23.833Z,14.97
2018-10-12T07:11:52.621Z,12.90
2018-10-12T07:14:21.382Z,10.77
2018-10-12T07:16:50.181Z,10.97
2018-10-12T07:19:18.982Z,12.50
2018-10-12T07:21:47.775Z,11.93
2018-10-12T07:24:16.548Z,10.17
2018-10-12T07:26:45.453Z,11.27
2018-10-12T07:29:14.254Z,11.20
2018-10-12T07:31:43.017Z,13.87
2018-10-12T07:34:11.794Z,8.87
2018-10-12T07:36:40.561Z,9.37
2018-10-12T07:39:09.698Z,12.03
2018-10-12T07:41:38.505Z,11.03
2018-10-12T07:44:07.490Z,7.23
2018-10-12T07:46:36.322Z,9.17
2018-10-12T07:49:05.150Z,10.70
2018-10-12T07:51:33.930Z,6.33
2018-10-12T07:54:02.753Z,14.53
2018-10-12T07:56:31.554Z,8.57
2018-10-12T07:59:00.388Z,11.37
2018-10-12T08:01:29.163Z,4.67
2018-10-12T08:03:57.937Z,7.73
2018-10-12T08:06:27.174Z,8.13
2018-10-12T08:08:55.993Z,5.67
2018-10-12T08:11:24.770Z,8.90
2018-10-12T08:13:53.601Z,4.93
2018-10-12T08:16:22.320Z,4.90
2018-10-12T08:18:51.225Z,5.40
2018-10-12T08:21:20.063Z,4.63
2018-10-12T08:23:48.879Z,5.07
2018-10-12T08:26:17.674Z,4.47
2018-10-12T08:28:46.429Z,6.60
2018-10-12T08:31:15.234Z,6.83
2018-10-12T08:33:44.118Z,7.87
2018-10-12T08:36:13.022Z,4.17
2018-10-12T08:38:41.801Z,7.80
2018-10-12T08:41:10.575Z,5.73
2018-10-12T08:43:39.379Z,8.77
2018-10-12T08:46:08.181Z,4.77
2018-10-12T08:48:36.951Z,5.07
2018-10-12T08:51:05.718Z,4.13
2018-10-12T08:53:34.502Z,5.17
2018-10-12T08:56:03.348Z,5.60
2018-10-12T08:58:32.146Z,7.87
2018-10-12T09:01:00.930Z,6.73
2018-10-12T09:03:29.708Z,4.87
2018-10-12T09:05:58.469Z,5.67
2018-10-12T09:08:27.258Z,2.93
2018-10-12T09:10:56.033Z,3.70
2018-10-12T09:13:24.824Z,8.30
2018-10-12T09:15:53.590Z,3.47
2018-10-12T09:18:22.417Z,6.40
2018-10-12T09:20:51.218Z,4.73
2018-10-12T09:23:20.009Z,5.77
2018-10-12T09:25:48.820Z,6.23
2018-10-12T09:28:17.578Z,4.90
2018-10-12T09:30:46.406Z,5.47
2018-10-12T09:33:15.189Z,5.03
2018-10-12T09:35:43.989Z,5.50
2018-10-12T09:38:12.749Z,4.57
2018-10-12T09:40:41.526Z,3.43
2018-10-12T09:43:10.304Z,2.87
2018-10-12T09:45:39.197Z,10.00
2018-10-12T09:48:07.999Z,4.37
2018-10-12T09:50:36.785Z,3.57
2018-10-12T09:53:05.547Z,3.50
2018-10-12T09:55:34.308Z,4.57
2018-10-12T09:58:03.069Z,4.93
2018-10-12T10:00:37.081Z,3.47
2018-10-12T10:03:11.080Z,4.67
2018-10-12T10:05:39.844Z,4.83
2018-10-12T10:08:08.775Z,2.77
2018-10-12T10:10:37.452Z,2.70
2018-10-12T10:13:06.228Z,2.43
2018-10-12T10:15:35.050Z,2.23
2018-10-12T10:18:03.817Z,3.13
2018-10-12T10:20:32.628Z,2.27
2018-10-12T10:23:01.402Z,1.83
2018-10-12T10:25:30.197Z,4.27
2018-10-12T10:27:58.969Z,4.17
2018-10-12T10:30:27.724Z,1.90
2018-10-12T10:32:56.485Z,1.57
2018-10-12T10:35:25.253Z,2.40
2018-10-12T10:37:54.058Z,3.33
2018-10-12T10:40:22.833Z,3.23
2018-10-12T10:42:51.590Z,3.87
2018-10-12T10:45:20.381Z,2.00
2018-10-12T10:47:49.588Z,3.00
2018-10-12T10:50:18.348Z,4.07
2018-10-12T10:52:47.184Z,3.03
2018-10-12T10:55:16.010Z,2.77
2018-10-12T10:57:44.793Z,6.20
2018-10-12T11:00:13.733Z,4.07
2018-10-12T11:02:42.504Z,4.93
2018-10-12T11:05:11.359Z,2.80
2018-10-12T11:07:40.146Z,2.30
2018-10-12T11:10:08.977Z,5.53
2018-10-12T11:12:37.858Z,2.30
2018-10-12T11:15:07.255Z,3.20
2018-10-12T11:17:36.052Z,2.27
2018-10-12T11:20:04.906Z,2.53
2018-10-12T11:22:33.665Z,2.47
2018-10-12T11:25:02.480Z,2.30
2018-10-12T11:27:31.254Z,6.80
2018-10-12T11:30:00.076Z,3.93
2018-10-12T11:32:28.829Z,4.80
2018-10-12T11:34:57.627Z,2.27
2018-10-12T11:37:26.386Z,3.83
2018-10-12T11:39:55.217Z,2.93
2018-10-12T11:42:28.413Z,2.00
2018-10-12T11:44:57.241Z,2.47
2018-10-12T11:47:25.970Z,1.70
2018-10-12T11:49:54.741Z,2.00
2018-10-12T11:52:23.524Z,2.73
2018-10-12T11:54:52.301Z,3.03
2018-10-12T11:57:21.061Z,2.03
2018-10-12T11:59:49.848Z,5.57
2018-10-12T12:02:18.719Z,1.93
2018-10-12T12:04:47.480Z,4.97
2018-10-12T12:07:16.261Z,1.67
2018-10-12T12:09:45.033Z,1.87
2018-10-12T12:12:13.813Z,1.20
2018-10-12T12:14:42.594Z,4.03
2018-10-12T12:17:11.360Z,1.87
2018-10-12T12:19:40.133Z,1.67
2018-10-12T12:22:08.914Z,2.47
2018-10-12T12:24:37.683Z,3.10
2018-10-12T12:27:06.513Z,4.67
2018-10-12T12:29:35.297Z,2.07
2018-10-12T12:32:04.115Z,2.53
2018-10-12T12:34:32.935Z,2.83
2018-10-12T12:37:01.740Z,1.53
2018-10-12T12:39:30.532Z,2.00
2018-10-12T12:41:59.333Z,4.20
2018-10-12T12:44:28.325Z,4.20
2018-10-12T12:46:57.112Z,1.33
2018-10-12T12:49:26.154Z,1.47
2018-10-12T12:51:54.710Z,2.27
2018-10-12T12:54:23.577Z,1.73
2018-10-12T12:56:52.368Z,3.47
2018-10-12T12:59:21.130Z,1.03
2018-10-12T13:01:49.914Z,1.93
2018-10-12T13:04:18.677Z,1.57
2018-10-12T13:06:47.489Z,1.47
2018-10-12T13:09:16.278Z,4.17
2018-10-12T13:11:45.074Z,3.93
2018-10-12T13:14:13.844Z,1.37
2018-10-12T13:16:42.648Z,2.43
2018-10-12T13:19:11.444Z,2.47
2018-10-12T13:21:40.205Z,1.73
2018-10-12T13:24:08.980Z,2.67
2018-10-12T13:26:37.765Z,2.27
2018-10-12T13:29:06.816Z,2.40
2018-10-12T13:31:35.581Z,4.30
2018-10-12T13:34:04.381Z,2.63
2018-10-12T13:36:33.242Z,2.20
2018-10-12T13:39:02.025Z,2.03
2018-10-12T13:41:30.825Z,3.07
2018-10-12T13:43:59.611Z,4.30
2018-10-12T13:46:28.436Z,2.80
2018-10-12T13:48:57.245Z,3.90
2018-10-12T13:51:26.391Z,3.57
2018-10-12T13:53:55.208Z,4.07
2018-10-12T13:56:23.981Z,2.60
2018-10-12T13:58:52.832Z,2.80
2018-10-12T14:01:21.603Z,2.57
2018-10-12T14:03:50.378Z,3.13
2018-10-12T14:06:19.185Z,3.00
2018-10-12T14:08:47.973Z,3.23
2018-10-12T14:11:16.753Z,2.77
2018-10-12T14:13:45.548Z,3.77
2018-10-12T14:16:14.590Z,3.33
2018-10-12T14:18:43.458Z,2.83
2018-10-12T14:21:12.242Z,2.10
2018-10-12T14:23:47.397Z,7.00
2018-10-12T14:26:16.229Z,3.03
2018-10-12T14:28:45.053Z,2.20
2018-10-12T14:31:13.854Z,4.33
2018-10-12T14:33:42.673Z,4.90
2018-10-12T14:36:11.456Z,3.23
2018-10-12T14:38:40.233Z,3.53
2018-10-12T14:41:09.030Z,3.03
2018-10-12T14:43:37.812Z,4.37
2018-10-12T14:46:06.937Z,2.13
2018-10-12T14:48:35.711Z,3.77
2018-10-12T14:51:04.504Z,3.40
2018-10-12T14:53:33.357Z,4.27
2018-10-12T14:56:02.105Z,2.37
2018-10-12T14:58:37.383Z,6.03
2018-10-12T15:01:06.206Z,5.33
2018-10-12T15:03:34.988Z,5.67
2018-10-12T15:06:03.880Z,2.70
2018-10-12T15:08:32.693Z,3.47
2018-10-12T15:11:01.531Z,3.87
2018-10-12T15:13:30.337Z,2.77
2018-10-12T15:15:59.132Z,2.93
2018-10-12T15:18:27.925Z,4.40
2018-10-12T15:20:56.771Z,5.17
2018-10-12T15:23:25.514Z,1.77
2018-10-12T15:25:54.301Z,3.60
2018-10-12T15:28:23.069Z,2.70
2018-10-12T15:30:51.878Z,10.40
2018-10-12T15:33:20.661Z,5.17
2018-10-12T15:35:49.484Z,1.97
2018-10-12T15:38:18.273Z,3.70
2018-10-12T15:40:47.147Z,5.47
2018-10-12T15:43:16.038Z,2.30
2018-10-12T15:45:44.804Z,3.37
2018-10-12T15:48:13.609Z,2.90
2018-10-12T15:50:42.422Z,4.50
2018-10-12T15:53:11.201Z,2.20
2018-10-12T15:55:40.027Z,2.10
2018-10-12T15:58:08.953Z,4.40
2018-10-12T16:00:37.734Z,2.43
2018-10-12T16:03:06.509Z,3.27
2018-10-12T16:05:35.301Z,8.70
2018-10-12T16:08:04.134Z,1.97
2018-10-12T16:10:33.033Z,5.27
2018-10-12T16:13:01.846Z,7.30
2018-10-12T16:15:30.617Z,2.87
2018-10-12T16:17:59.393Z,3.17
2018-10-12T16:20:28.190Z,3.27
2018-10-12T16:22:56.973Z,2.50
2018-10-12T16:26:06.047Z,2.47
2018-10-12T16:28:34.861Z,2.27
2018-10-12T16:31:03.694Z,1.97
2018-10-12T16:33:32.470Z,3.37
2018-10-12T16:36:01.394Z,2.50
2018-10-12T16:38:30.118Z,3.17
2018-10-12T16:40:58.904Z,3.97
2018-10-12T16:43:27.694Z,3.77
2018-10-12T16:45:56.493Z,3.37
2018-10-12T16:48:25.298Z,2.20
2018-10-12T16:50:54.129Z,4.10
2018-10-12T16:53:23.001Z,3.83
2018-10-12T16:55:51.773Z,4.30
2018-10-12T16:58:20.629Z,6.13
2018-10-12T17:00:49.363Z,4.63
2018-10-12T17:03:18.136Z,5.27
2018-10-12T17:05:46.917Z,3.97
2018-10-12T17:08:15.682Z,6.77
2018-10-12T17:10:44.480Z,4.80
2018-10-12T17:13:13.249Z,4.13
2018-10-12T17:15:42.030Z,2.93
2018-10-12T17:18:10.802Z,3.50
2018-10-12T17:20:39.602Z,3.53
2018-10-12T17:23:08.817Z,2.33
2018-10-12T17:25:37.593Z,5.90
2018-10-12T17:28:07.337Z,4.70
2018-10-12T17:30:36.231Z,5.03
2018-10-12T17:33:04.978Z,3.53
2018-10-12T17:35:33.765Z,6.73
2018-10-12T17:38:02.544Z,3.23
2018-10-12T17:40:31.337Z,4.30
2018-10-12T17:43:00.174Z,2.40
2018-10-12T17:45:28.964Z,4.90
2018-10-12T17:47:57.751Z,3.87
2018-10-12T17:50:26.601Z,3.23
2018-10-12T17:52:55.389Z,4.97
2018-10-12T17:55:24.173Z,3.80
2018-10-12T17:57:52.942Z,3.70
2018-10-12T18:00:21.812Z,6.30
2018-10-12T18:02:50.565Z,4.37
2018-10-12T18:05:19.407Z,4.23
2018-10-12T18:07:48.217Z,4.43
2018-10-12T18:10:17.009Z,3.40
2018-10-12T18:12:45.808Z,4.10
2018-10-12T18:15:15.040Z,3.43
2018-10-12T18:17:43.844Z,5.70
2018-10-12T18:20:13.252Z,4.00
2018-10-12T18:22:42.070Z,4.03
2018-10-12T18:25:10.882Z,2.97
2018-10-12T18:27:39.670Z,4.87
2018-10-12T18:30:08.461Z,5.67
2018-10-12T18:32:37.263Z,4.20
2018-10-12T18:35:06.048Z,8.17
2018-10-12T18:37:34.831Z,7.23
2018-10-12T18:40:03.669Z,6.63
2018-10-12T18:42:32.496Z,10.83
2018-10-12T18:45:01.301Z,16.70
2018-10-12T18:47:30.119Z,18.57
2018-10-12T18:49:58.965Z,15.63
2018-10-12T18:52:27.749Z,13.03
2018-10-12T18:54:56.537Z,13.70
2018-10-12T18:57:25.413Z,11.87
2018-10-12T18:59:54.209Z,8.37
2018-10-12T19:02:22.984Z,9.30
2018-10-12T19:04:51.829Z,6.30
2018-10-12T19:07:20.626Z,7.53
2018-10-12T19:09:49.389Z,6.53
2018-10-12T19:12:18.213Z,4.03
2018-10-12T19:14:47.021Z,8.97
2018-10-12T19:17:15.819Z,6.20
2018-10-12T19:19:44.680Z,7.00
2018-10-12T19:22:13.421Z,5.80
2018-10-12T19:24:42.314Z,7.03
2018-10-12T19:27:11.098Z,7.87
2018-10-12T19:29:39.922Z,3.53
2018-10-12T19:32:08.674Z,4.03
2018-10-12T19:34:37.525Z,5.47
2018-10-12T19:37:06.611Z,6.60
2018-10-12T19:39:35.389Z,5.30
2018-10-12T19:42:04.178Z,4.17
2018-10-12T19:44:32.981Z,5.53
2018-10-12T19:47:01.805Z,7.07
2018-10-12T19:49:30.585Z,5.17
2018-10-12T19:51:59.394Z,5.27
2018-10-12T19:54:28.194Z,4.43
2018-10-12T19:56:56.966Z,4.43
2018-10-12T19:59:25.806Z,6.87
2018-10-12T20:01:54.580Z,6.50
2018-10-12T20:04:23.363Z,4.70
2018-10-12T20:06:52.185Z,5.43
2018-10-12T20:09:20.954Z,8.37
2018-10-12T20:11:49.737Z,6.00
2018-10-12T20:14:18.545Z,5.63
2018-10-12T20:16:47.368Z,4.73
2018-10-12T20:19:16.146Z,5.17
2018-10-12T20:21:44.939Z,4.63
2018-10-12T20:24:13.734Z,6.63
2018-10-12T20:26:42.536Z,6.07
2018-10-12T20:29:11.325Z,4.80
2018-10-12T20:31:40.241Z,3.60
2018-10-12T20:34:08.953Z,10.40
2018-10-12T20:36:38.121Z,7.97
2018-10-12T20:39:09.588Z,4.37
2018-10-12T20:41:38.889Z,4.03
2018-10-12T20:44:08.301Z,5.03
2018-10-12T20:46:37.701Z,6.37
2018-10-12T20:49:06.840Z,4.63
2018-10-12T20:51:36.109Z,5.13
2018-10-12T20:54:05.227Z,8.63
2018-10-12T20:56:34.364Z,5.63
2018-10-12T20:59:03.647Z,6.53
2018-10-12T21:01:32.748Z,6.20
2018-10-12T21:04:02.060Z,3.27
2018-10-12T21:06:31.369Z,6.57
2018-10-12T21:09:00.520Z,4.47
2018-10-12T21:11:29.669Z,5.87
2018-10-12T21:13:58.827Z,5.57
2018-10-12T21:16:27.896Z,3.93
2018-10-12T21:18:57.009Z,4.07
2018-10-12T21:21:26.119Z,4.30
2018-10-12T21:23:55.285Z,7.27
2018-10-12T21:26:24.406Z,7.97
2018-10-12T21:28:53.473Z,4.17
2018-10-12T21:31:22.689Z,4.93
2018-10-12T21:33:51.769Z,5.50
2018-10-12T21:36:20.886Z,6.67
2018-10-12T21:38:50.265Z,6.40
2018-10-12T21:41:19.378Z,3.97
2018-10-12T21:43:48.622Z,4.87
2018-10-12T21:46:17.775Z,4.87
2018-10-12T21:48:46.919Z,4.37
2018-10-12T21:51:16.062Z,6.97
2018-10-12T21:53:45.235Z,10.27
2018-10-12T21:56:14.421Z,3.77
2018-10-12T21:58:43.553Z,12.50
2018-10-12T22:01:12.648Z,6.60
2018-10-12T22:03:41.746Z,3.57
2018-10-12T22:06:10.851Z,6.20
2018-10-12T22:08:45.090Z,6.53
2018-10-12T22:11:14.247Z,5.37
2018-10-12T22:13:43.618Z,6.57
2018-10-12T22:16:12.729Z,6.50
2018-10-12T22:18:41.840Z,6.53
2018-10-12T22:21:10.936Z,5.83
2018-10-12T22:23:40.008Z,4.63
2018-10-12T22:26:09.172Z,6.73
2018-10-12T22:28:38.309Z,6.83
2018-10-12T22:31:07.545Z,10.10
2018-10-12T22:33:36.696Z,7.33
2018-10-12T22:36:05.817Z,6.20
2018-10-12T22:38:34.965Z,5.77
2018-10-12T22:41:04.200Z,5.60
2018-10-12T22:43:33.305Z,7.90
2018-10-12T22:46:02.530Z,11.50
2018-10-12T22:48:31.794Z,10.73
2018-10-12T22:51:00.901Z,7.67
2018-10-12T22:53:29.997Z,8.10
2018-10-12T22:55:59.133Z,7.40
2018-10-12T22:58:28.341Z,9.10
2018-10-12T23:00:57.521Z,5.60
2018-10-12T23:03:26.593Z,5.53
2018-10-12T23:05:55.816Z,6.37
2018-10-12T23:08:25.085Z,6.60
2018-10-12T23:10:54.365Z,9.63
2018-10-12T23:13:23.521Z,7.87
2018-10-12T23:15:52.861Z,6.87
2018-10-12T23:18:21.972Z,7.80
2018-10-12T23:20:51.061Z,7.03
2018-10-12T23:23:20.161Z,7.30
2018-10-12T23:25:49.312Z,12.00
2018-10-12T23:28:18.491Z,7.83
2018-10-12T23:30:47.649Z,11.70
2018-10-12T23:33:27.609Z,7.17
2018-10-12T23:35:56.693Z,14.23
2018-10-12T23:38:25.929Z,6.90
2018-10-12T23:40:55.191Z,12.07
2018-10-12T23:43:24.285Z,11.83
2018-10-12T23:45:53.568Z,7.30
2018-10-12T23:48:22.672Z,14.23
2018-10-12T23:50:51.792Z,10.30
2018-10-12T23:53:20.911Z,10.67
2018-10-12T23:55:50.223Z,12.40
2018-10-12T23:58:19.460Z,11.00
